KRWI

Rocky Mount-Wilson Regional Airport

Rocky Mount, North Carolina, USA
METAR KRWI 190853Z AUTO 32004KT 10SM CLR 21/20 A2989 RMK AO2 SLP119 T02110200 53001
Observed Flight Rules
Sep-19 @ 08:53 UTC (43 minutes ago) Visual Flight Rules
Wind Visibility Clouds
320° at 4 knots 10 miles
  • Clear skies
Temperatures Readings
Current 21°C / 70°F
Dewpoint 20°C / 68°F
Humidity 94%
Altimeter 29.89" Hg
Pressure 1011.9 hPa
Elevation 47
METAR KRWI 190853Z AUTO 32004KT 10SM CLR 21/20 A2989 RMK AO2 SLP119 T02110200 53001
Observed Flight Rules
Sep-19 @ 08:53 UTC
(43 minutes ago)
VFR
Wind Visibility
320° at 4 knots 10 miles
Clouds
  • Clear skies
Temperature Dewpoint
21°C / 70°F 20°C / 68°F
Humidity Altimeter Pressure
94% 29.89" Hg 1011.9 hPa